Time;durP1;ratioP1;P1;durP2;ratioP2;P2;SDS_P1;SDS_P2;PMS_P1;PMS_P2;Temp;Humidity;BMP_temperature;BMP_pressure;BME280_temperature;BME280_humidity;BME280_pressure;Samples;Min_cycle;Max_cycle;Signal;HPM_P1;HPM_P2
2021/04/11 00:02:01;;;;;;;17.40;6.90;;;;;;;6.88;55.50;98526.79;115166;1200;23102;-76
2021/04/11 00:04:28;;;;;;;13.53;6.50;;;;;;;6.87;56.37;98522.44;115164;1202;23098;-75
2021/04/11 00:06:55;;;;;;;11.20;6.25;;;;;;;6.85;56.37;98516.39;115151;1200;23110;-75
2021/04/11 00:09:22;;;;;;;15.70;7.10;;;;;;;6.85;56.15;98513.69;115263;1200;24758;-76
2021/04/11 00:11:49;;;;;;;14.03;6.20;;;;;;;6.83;56.27;98513.94;115000;1202;23166;-75
2021/04/11 00:14:17;;;;;;;11.90;6.50;;;;;;;6.81;56.14;98520.59;114912;1201;23102;-76
2021/04/11 00:16:44;;;;;;;12.15;6.80;;;;;;;6.81;56.58;98518.71;115191;1202;26041;-75
2021/04/11 00:19:10;;;;;;;15.17;6.73;;;;;;;6.78;57.19;98504.78;115227;1199;23166;-75
2021/04/11 00:21:37;;;;;;;15.17;7.93;;;;;;;6.74;57.54;98507.10;115174;1201;23139;-75
2021/04/11 00:24:05;;;;;;;15.73;7.37;;;;;;;6.71;56.59;98510.27;115156;1202;23109;-75
2021/04/11 00:26:31;;;;;;;15.30;8.00;;;;;;;6.67;56.44;98506.32;115099;1198;24536;-75
2021/04/11 00:28:58;;;;;;;16.20;7.87;;;;;;;6.69;57.32;98511.52;115139;1201;23302;-75
2021/04/11 00:31:25;;;;;;;18.27;8.00;;;;;;;6.68;57.82;98507.17;115056;1200;23094;-75
2021/04/11 00:33:52;;;;;;;18.05;8.80;;;;;;;6.63;58.58;98505.11;115034;1203;23113;-75
2021/04/11 00:36:19;;;;;;;18.30;9.17;;;;;;;6.58;58.60;98504.93;115059;1199;23145;-75
2021/04/11 00:38:47;;;;;;;18.60;8.93;;;;;;;6.53;58.39;98496.64;115045;1200;23095;-75
2021/04/11 00:41:44;;;;;;;16.13;8.50;;;;;;;6.52;58.17;98511.23;114841;1202;23272;-75
2021/04/11 00:44:12;;;;;;;17.40;8.13;;;;;;;6.48;58.34;98508.13;114810;1202;23111;-75
2021/04/11 00:46:51;;;;;;;18.47;8.30;;;;;;;6.48;57.94;98497.31;114839;1202;26236;-75
2021/04/11 00:49:26;;;;;;;20.20;8.67;;;;;;;6.46;58.62;98496.67;115040;1200;23106;-75
2021/04/11 00:51:53;;;;;;;20.23;7.93;;;;;;;6.46;57.72;98494.81;115107;1202;23207;-75
2021/04/11 00:54:21;;;;;;;18.35;9.35;;;;;;;6.46;58.28;98496.67;115000;1200;24768;-75
2021/04/11 00:56:48;;;;;;;20.60;9.60;;;;;;;6.46;58.86;98493.97;115005;1203;23106;-75
2021/04/11 00:59:18;;;;;;;21.33;10.35;;;;;;;6.45;58.25;98484.20;115056;1202;23247;-75
2021/04/11 01:01:46;;;;;;;23.83;10.78;;;;;;;6.44;58.35;98496.88;115019;1200;26201;-75
2021/04/11 01:04:16;;;;;;;25.75;11.25;;;;;;;6.43;58.79;98500.66;115132;1202;23093;-75
2021/04/11 01:06:49;;;;;;;24.73;10.37;;;;;;;6.41;58.38;98505.45;115068;1201;24870;-75
2021/04/11 01:09:33;;;;;;;26.13;12.00;;;;;;;6.38;59.65;98514.00;115073;1202;23093;-75
2021/04/11 01:12:03;;;;;;;32.83;16.73;;;;;;;6.20;59.32;98513.89;115068;1202;23264;-75
2021/04/11 01:14:35;;;;;;;39.05;17.65;;;;;;;5.95;59.73;98514.59;114767;1201;23150;-75
2021/04/11 01:17:22;;;;;;;44.23;20.33;;;;;;;5.77;60.02;98514.42;114867;1201;23112;-76
2021/04/11 01:19:52;;;;;;;32.80;15.55;;;;;;;5.64;60.83;98518.82;115007;1202;23092;-76
2021/04/11 01:22:37;;;;;;;24.80;11.60;;;;;;;5.59;60.82;98507.81;115048;1200;23224;-76
2021/04/11 01:25:27;;;;;;;22.40;10.75;;;;;;;5.57;61.60;98500.98;114836;1202;23188;-75
2021/04/11 01:27:57;;;;;;;22.30;10.90;;;;;;;5.58;61.90;98494.52;115133;1200;23117;-75
2021/04/11 01:30:29;;;;;;;18.93;8.98;;;;;;;5.59;62.60;98497.02;114914;1202;23095;-76
2021/04/11 01:32:57;;;;;;;22.83;10.03;;;;;;;5.61;61.96;98505.76;114980;1200;27635;-76
2021/04/11 01:35:27;;;;;;;18.40;9.07;;;;;;;5.61;62.52;98494.11;114921;1201;23227;-76
2021/04/11 01:37:57;;;;;;;23.50;11.47;;;;;;;5.63;62.07;98498.27;114892;1202;23112;-76
2021/04/11 01:40:49;;;;;;;21.73;11.40;;;;;;;5.65;62.31;98495.36;114874;1202;23086;-76
2021/04/11 01:43:16;;;;;;;24.13;11.27;;;;;;;5.67;62.10;98495.97;115067;1200;23089;-76
2021/04/11 01:45:45;;;;;;;25.50;11.15;;;;;;;5.71;62.17;98502.59;115187;1202;24881;-76
2021/04/11 01:48:14;;;;;;;22.13;11.03;;;;;;;5.73;62.17;98497.81;114863;1199;23114;-76
2021/04/11 01:50:42;;;;;;;22.17;11.60;;;;;;;5.76;62.09;98507.38;114857;1199;26214;-76
2021/04/11 01:53:11;;;;;;;30.37;14.57;;;;;;;5.75;62.69;98511.94;114819;1200;26217;-76
2021/04/11 01:55:39;;;;;;;;;;;;;;;5.66;61.80;98524.02;114860;1206;23090;-76
2021/04/11 01:58:07;;;;;;;37.87;17.40;;;;;;;5.50;62.05;98518.02;114772;1202;21671;-76
2021/04/11 02:00:39;;;;;;;33.03;16.37;;;;;;;5.36;62.91;98512.86;115034;1202;23140;-76
2021/04/11 02:03:13;;;;;;;32.47;17.63;;;;;;;5.16;62.55;98507.48;115079;1202;25959;-76
2021/04/11 02:05:44;;;;;;;29.20;15.00;;;;;;;5.01;63.21;98516.64;115044;1202;23232;-76
2021/04/11 02:08:18;;;;;;;32.40;16.30;;;;;;;4.89;64.50;98508.32;114841;1202;24552;-76
2021/04/11 02:10:51;;;;;;;31.95;14.45;;;;;;;4.82;64.40;98506.67;115221;1200;23144;-76
2021/04/11 02:13:27;;;;;;;30.60;13.00;;;;;;;4.76;65.16;98502.91;114951;1200;26016;-76
2021/04/11 02:15:59;;;;;;;24.95;11.75;;;;;;;4.78;64.83;98494.61;114826;1202;23554;-76
2021/04/11 02:18:30;;;;;;;27.05;11.05;;;;;;;4.84;65.50;98491.09;115137;1200;23231;-76
2021/04/11 02:21:00;;;;;;;22.83;10.90;;;;;;;4.88;65.18;98487.76;115160;1200;23091;-76
2021/04/11 02:23:30;;;;;;;24.20;11.78;;;;;;;4.93;65.08;98484.45;115050;1201;23150;-76
2021/04/11 02:25:58;;;;;;;23.95;11.30;;;;;;;5.00;65.40;98484.45;115121;1202;23113;-76
2021/04/11 02:28:30;;;;;;;24.77;12.87;;;;;;;5.00;65.04;98487.16;115031;1202;23113;-76
2021/04/11 02:34:07;;;;;;;21.30;9.90;;;;;;;4.84;64.80;98480.30;115057;1202;26830;-76
2021/04/11 02:36:48;;;;;;;22.40;10.90;;;;;;;4.79;65.50;98483.61;115079;1201;23231;-76
2021/04/11 02:39:23;;;;;;;23.60;9.37;;;;;;;4.77;65.28;98482.17;115103;1201;23093;-76
2021/04/11 02:41:51;;;;;;;16.93;8.57;;;;;;;4.75;65.54;98490.47;115056;1202;23171;-76
2021/04/11 02:44:19;;;;;;;16.15;8.20;;;;;;;4.73;65.31;98485.27;115112;1201;23228;-76
2021/04/11 02:46:47;;;;;;;24.33;9.37;;;;;;;4.71;65.67;98497.29;115074;1202;23089;-76
2021/04/11 02:49:19;;;;;;;17.87;10.20;;;;;;;4.67;65.96;98494.17;115129;1200;24840;-76
2021/04/11 02:52:17;;;;;;;24.47;12.20;;;;;;;4.63;65.81;98490.23;114898;1199;26002;-76
2021/04/11 02:54:44;;;;;;;23.57;12.03;;;;;;;4.60;65.48;98497.91;114757;1202;23263;-76
2021/04/11 02:57:17;;;;;;;24.25;10.05;;;;;;;4.60;66.46;98497.91;115026;1202;23542;-76
2021/04/11 02:59:46;;;;;;;20.48;11.00;;;;;;;4.57;66.08;98507.26;115139;1201;23327;-76
2021/04/11 03:02:15;;;;;;;28.85;13.65;;;;;;;4.47;65.91;98513.03;115101;1202;23681;-76
2021/04/11 03:04:54;;;;;;;31.13;15.78;;;;;;;4.35;66.05;98509.27;114822;1200;23260;-76
2021/04/11 03:07:26;;;;;;;29.43;14.25;;;;;;;4.25;66.16;98506.98;114805;1201;23224;-76
2021/04/11 03:10:04;;;;;;;26.63;12.67;;;;;;;4.18;66.49;98511.52;115084;1199;23090;-76
2021/04/11 03:12:36;;;;;;;25.73;12.83;;;;;;;4.13;67.38;98506.73;115099;1201;23113;-76
2021/04/11 03:15:06;;;;;;;23.13;11.28;;;;;;;4.06;67.29;98497.79;114887;1200;23107;-76
2021/04/11 03:17:34;;;;;;;21.25;10.50;;;;;;;4.00;67.68;98495.89;114822;1200;25958;-76
2021/04/11 03:20:08;;;;;;;22.65;10.90;;;;;;;3.97;67.80;98488.23;115082;1202;23112;-76
2021/04/11 03:22:36;;;;;;;22.03;9.70;;;;;;;3.97;68.29;98482.84;115044;1199;23111;-76
2021/04/11 03:25:11;;;;;;;17.83;8.67;;;;;;;4.01;68.23;98488.66;114753;1202;23112;-76
2021/04/11 03:28:09;;;;;;;18.90;8.80;;;;;;;4.06;67.96;98484.31;114821;1200;23247;-76
2021/04/11 03:30:55;;;;;;;18.77;9.53;;;;;;;4.12;68.01;98482.67;114750;1201;23116;-76
2021/04/11 03:33:24;;;;;;;19.23;9.37;;;;;;;4.16;68.32;98492.86;115072;1202;23156;-76
2021/04/11 03:35:52;;;;;;;;;;;;;;;4.16;68.29;98484.77;115081;1205;23227;-76
2021/04/11 03:38:26;;;;;;;22.60;9.97;;;;;;;4.14;67.66;98484.14;115095;1202;21608;-76
2021/04/11 03:40:57;;;;;;;17.95;8.25;;;;;;;4.09;67.77;98481.22;115072;1202;23093;-76
2021/04/11 03:43:29;;;;;;;19.05;8.50;;;;;;;4.06;68.60;98480.80;115058;1202;23093;-76
2021/04/11 03:45:59;;;;;;;14.30;7.57;;;;;;;4.02;68.77;98469.59;114724;1202;23191;-76
2021/04/11 03:48:36;;;;;;;18.47;8.57;;;;;;;4.05;68.70;98477.25;115077;1200;26227;-76
2021/04/11 03:51:15;;;;;;;15.40;8.27;;;;;;;4.06;68.46;98473.54;114994;1202;23260;-76
2021/04/11 03:53:47;;;;;;;14.93;7.28;;;;;;;4.12;68.52;98478.10;114822;1202;23090;-76
2021/04/11 03:56:19;;;;;;;14.20;7.70;;;;;;;4.16;68.38;98476.69;115076;1200;23112;-76
2021/04/11 03:58:53;;;;;;;23.00;10.80;;;;;;;4.23;68.53;98486.64;115121;1202;23113;-76
2021/04/11 04:01:51;;;;;;;22.20;11.67;;;;;;;4.17;67.94;98472.12;114803;1202;23118;-76
2021/04/11 04:04:23;;;;;;;25.07;12.43;;;;;;;4.11;67.71;98470.25;114794;1202;23135;-76
2021/04/11 04:07:16;;;;;;;23.57;12.57;;;;;;;4.03;67.60;98476.63;115042;1200;24723;-76
2021/04/11 04:10:04;;;;;;;23.10;11.50;;;;;;;3.95;67.60;98476.83;115026;1202;23118;-76
2021/04/11 04:12:55;;;;;;;19.87;8.63;;;;;;;3.88;68.23;98471.41;114812;1202;23085;-76
2021/04/11 04:15:31;;;;;;;14.73;8.07;;;;;;;3.85;68.63;98476.38;115036;1202;23092;-76
2021/04/11 04:18:36;;;;;;;17.00;8.05;;;;;;;3.85;69.29;98461.03;115053;1202;23132;-76
2021/04/11 04:21:18;;;;;;;19.80;9.40;;;;;;;3.91;68.96;98470.16;114756;1200;24724;-76
2021/04/11 04:23:51;;;;;;;14.77;7.77;;;;;;;3.96;69.18;98473.91;115053;1199;23231;-76
2021/04/11 04:26:48;;;;;;;18.80;8.27;;;;;;;3.98;69.54;98474.56;114755;1202;23089;-76
2021/04/11 04:29:25;;;;;;;17.65;9.45;;;;;;;3.94;68.68;98477.84;115170;1202;23171;-76
2021/04/11 04:32:14;;;;;;;19.07;10.13;;;;;;;3.85;68.78;98479.89;115031;1202;23089;-76
2021/04/11 04:35:07;;;;;;;25.05;10.75;;;;;;;3.82;69.20;98482.97;115035;1202;23093;-76
2021/04/11 04:38:01;;;;;;;16.70;8.57;;;;;;;3.86;69.78;98478.02;115078;1202;23089;-76
2021/04/11 04:40:44;;;;;;;17.55;8.45;;;;;;;3.87;70.01;98480.51;114761;1200;23118;-76
2021/04/11 04:43:32;;;;;;;15.13;8.20;;;;;;;3.90;70.00;98480.11;114815;1202;27278;-76
2021/04/11 04:46:10;;;;;;;16.85;8.95;;;;;;;3.97;70.41;98490.92;114808;1202;23213;-76
2021/04/11 04:48:41;;;;;;;18.00;8.57;;;;;;;4.06;70.12;98494.27;115085;1202;23093;-76
2021/04/11 04:51:35;;;;;;;13.57;7.37;;;;;;;4.18;70.11;98495.35;115088;1202;23093;-76
2021/04/11 04:54:41;;;;;;;15.57;7.70;;;;;;;4.32;70.35;98496.19;115031;1202;23113;-76
2021/04/11 04:57:11;;;;;;;24.45;10.40;;;;;;;4.44;69.79;98485.65;115048;1202;23109;-76
2021/04/11 04:59:47;;;;;;;19.95;9.95;;;;;;;4.47;69.33;98486.07;114785;1202;23143;-76
2021/04/11 05:02:19;;;;;;;18.70;9.50;;;;;;;4.48;69.49;98485.05;115020;1200;24727;-76
2021/04/11 05:05:07;;;;;;;13.05;7.60;;;;;;;4.51;70.08;98473.83;114831;1202;23147;-76
2021/04/11 05:07:47;;;;;;;13.07;5.83;;;;;;;4.58;70.29;98473.02;115334;1202;23147;-76
2021/04/11 05:10:22;;;;;;;15.97;7.17;;;;;;;4.70;70.62;98472.19;115003;1200;24583;-76
2021/04/11 05:13:12;;;;;;;11.23;6.70;;;;;;;4.86;69.91;98459.34;115194;1201;23097;-76
2021/04/11 05:15:45;;;;;;;;;;;;;;;5.03;69.79;98465.97;115348;1205;23171;-76
2021/04/11 05:18:33;;;;;;;14.90;7.75;;;;;;;5.19;69.67;98472.80;115220;1200;21448;-76
2021/04/11 05:21:15;;;;;;;14.70;7.20;;;;;;;5.35;69.08;98482.34;115150;1202;23263;-76
2021/04/11 05:24:21;;;;;;;19.95;10.05;;;;;;;5.46;69.12;98478.97;114969;1200;23147;-76
2021/04/11 05:27:01;;;;;;;17.37;9.33;;;;;;;5.47;68.68;98487.90;115092;1199;23086;-76
2021/04/11 05:29:45;;;;;;;20.03;10.33;;;;;;;5.43;68.32;98492.89;114856;1200;23275;-76
2021/04/11 05:32:13;;;;;;;20.05;10.35;;;;;;;5.46;68.81;98488.95;115082;1200;23159;-76
2021/04/11 05:34:41;;;;;;;19.60;9.20;;;;;;;5.51;68.58;98481.88;115057;1202;23246;-76
2021/04/11 05:37:33;;;;;;;16.00;8.90;;;;;;;5.61;69.49;98477.89;114933;1200;23135;-76
2021/04/11 05:40:13;;;;;;;12.20;6.40;;;;;;;5.77;68.53;98480.15;115161;1200;24890;-76
2021/04/11 05:42:54;;;;;;;14.33;6.47;;;;;;;5.93;68.42;98478.81;115244;1200;24140;-76
2021/04/11 05:45:44;;;;;;;14.40;6.40;;;;;;;6.07;67.80;98472.36;115014;1201;24880;-76
2021/04/11 05:48:29;;;;;;;;;;;;;;;6.22;67.34;98476.65;114994;1205;26196;-76
2021/04/11 05:51:15;;;;;;;16.65;8.50;;;;;;;6.34;67.30;98463.24;114920;1200;21680;-76
2021/04/11 05:53:56;;;;;;;15.10;7.10;;;;;;;6.50;67.24;98470.02;114980;1202;23134;-76
2021/04/11 05:56:34;;;;;;;11.87;6.50;;;;;;;6.60;66.28;98471.18;114904;1202;23112;-76
2021/04/11 05:59:09;;;;;;;15.30;7.10;;;;;;;6.69;65.71;98468.22;115041;1203;23135;-76
2021/04/11 06:01:43;;;;;;;11.17;6.47;;;;;;;6.77;65.63;98463.37;114952;1200;23305;-76
2021/04/11 06:04:16;;;;;;;11.77;6.13;;;;;;;6.90;65.20;98464.31;115212;1199;23090;-76
2021/04/11 06:07:08;;;;;;;9.80;5.80;;;;;;;7.00;65.48;98453.81;114935;1203;23152;-76
2021/04/11 06:09:56;;;;;;;9.65;5.55;;;;;;;7.14;65.02;98449.11;115185;1200;26245;-76
2021/04/11 06:13:01;;;;;;;11.93;5.33;;;;;;;7.29;65.06;98459.58;115147;1200;22899;-77
2021/04/11 06:15:34;;;;;;;11.53;5.23;;;;;;;7.41;64.51;98458.61;114903;1200;23542;-76
2021/04/11 06:18:05;;;;;;;13.80;5.80;;;;;;;7.55;63.63;98453.06;114909;1200;24937;-76
2021/04/11 06:20:33;;;;;;;12.95;4.85;;;;;;;7.65;63.26;98449.81;115066;1199;26984;-76
2021/04/11 06:23:23;;;;;;;11.03;4.97;;;;;;;7.79;62.92;98452.16;115016;1200;24765;-76
2021/04/11 06:26:06;;;;;;;9.10;4.35;;;;;;;7.93;62.03;98444.69;115143;1201;23116;-76
2021/04/11 06:29:01;;;;;;;12.10;5.00;;;;;;;8.04;61.75;98448.52;115109;1202;26118;-77
2021/04/11 06:31:35;;;;;;;9.85;5.35;;;;;;;8.16;61.25;98449.39;115105;1202;25188;-76
2021/04/11 06:34:11;;;;;;;8.20;4.30;;;;;;;8.31;60.86;98448.14;114817;1200;27201;-76
2021/04/11 06:36:44;;;;;;;10.15;4.85;;;;;;;8.43;60.63;98448.19;114812;1200;26044;-76
2021/04/11 06:39:28;;;;;;;8.57;3.87;;;;;;;8.55;59.65;98447.19;114854;1201;23224;-77
2021/04/11 06:42:01;;;;;;;9.60;4.70;;;;;;;8.72;59.22;98439.19;114772;1202;23093;-76
2021/04/11 06:44:59;;;;;;;10.20;5.05;;;;;;;8.85;59.02;98440.88;114875;1200;23086;-77
2021/04/11 06:47:41;;;;;;;8.93;4.60;;;;;;;9.00;58.36;98439.59;115132;1200;25955;-76
2021/04/11 06:50:24;;;;;;;10.40;4.90;;;;;;;9.10;58.04;98442.52;115048;1200;23146;-77
2021/04/11 06:53:16;;;;;;;10.90;5.00;;;;;;;9.26;57.83;98444.55;114805;1202;23117;-77
2021/04/11 06:55:58;;;;;;;10.00;4.50;;;;;;;9.41;57.60;98441.34;114818;1200;23118;-77
2021/04/11 06:58:56;;;;;;;9.30;4.87;;;;;;;9.57;57.12;98455.28;115098;1202;23098;-77
2021/04/11 07:01:48;;;;;;;9.28;4.88;;;;;;;9.67;56.77;98450.89;115128;1200;24730;-77
2021/04/11 07:04:40;;;;;;;9.15;4.40;;;;;;;9.80;56.88;98448.97;115084;1200;23276;-76
2021/04/11 07:07:38;;;;;;;11.45;5.60;;;;;;;9.93;56.04;98440.52;115037;1201;24552;-77
2021/04/11 07:10:36;;;;;;;9.20;4.93;;;;;;;10.11;55.25;98446.86;115046;1202;23110;-77
2021/04/11 07:13:24;;;;;;;13.55;5.90;;;;;;;10.25;54.98;98437.33;114769;1202;24753;-76
2021/04/11 07:16:19;;;;;;;10.98;5.83;;;;;;;10.40;55.18;98420.50;114982;1200;24881;-76
2021/04/11 07:19:19;;;;;;;10.70;4.55;;;;;;;10.56;55.56;98424.32;115026;1202;23241;-76
2021/04/11 07:22:13;;;;;;;10.20;4.40;;;;;;;10.74;54.00;98413.19;114800;1200;25179;-75
2021/04/11 07:25:19;;;;;;;10.20;5.05;;;;;;;10.95;53.61;98421.70;114735;1203;26954;-76
2021/04/11 07:28:17;;;;;;;12.90;5.40;;;;;;;11.12;52.70;98414.34;114841;1202;23201;-76
2021/04/11 07:30:59;;;;;;;12.10;5.15;;;;;;;11.31;52.57;98423.05;115070;1200;27375;-76
2021/04/11 07:33:38;;;;;;;10.20;4.60;;;;;;;11.45;52.58;98426.25;114729;1203;23218;-75
2021/04/11 07:36:37;;;;;;;13.30;5.53;;;;;;;11.59;52.04;98421.25;114999;1202;24894;-76
2021/04/11 07:39:30;;;;;;;14.45;5.80;;;;;;;11.74;52.53;98431.56;114923;1199;23231;-76
2021/04/11 07:42:19;;;;;;;11.20;4.50;;;;;;;11.90;51.13;98427.12;114751;1203;23166;-76
2021/04/11 07:45:11;;;;;;;8.53;3.70;;;;;;;12.05;51.13;98432.77;115032;1202;23192;-76
2021/04/11 07:47:43;;;;;;;8.90;3.40;;;;;;;12.23;49.63;98428.05;115015;1202;27291;-76
2021/04/11 07:50:35;;;;;;;7.50;2.60;;;;;;;12.34;48.97;98425.19;114762;1200;24728;-76
2021/04/11 07:53:37;;;;;;;6.60;3.30;;;;;;;12.49;47.54;98423.69;115042;1202;23093;-76
2021/04/11 07:56:07;;;;;;;5.60;2.40;;;;;;;12.65;47.24;98414.54;114994;1202;23102;-76
2021/04/11 07:58:56;;;;;;;4.57;2.27;;;;;;;12.80;47.68;98411.13;115087;1202;23081;-76
2021/04/11 08:01:41;;;;;;;4.90;2.45;;;;;;;12.99;46.05;98413.45;115069;1202;26067;-76
2021/04/11 08:04:33;;;;;;;4.90;2.25;;;;;;;13.16;45.07;98403.19;115041;1199;23123;-76
2021/04/11 08:07:20;;;;;;;4.30;2.20;;;;;;;13.34;44.41;98403.88;115051;1201;23106;-76
2021/04/11 08:09:57;;;;;;;4.70;2.55;;;;;;;13.53;44.95;98401.50;115040;1201;26066;-76
2021/04/11 08:12:36;;;;;;;4.60;2.40;;;;;;;13.69;43.61;98405.98;115036;1199;23109;-76
2021/04/11 08:15:16;;;;;;;3.95;2.40;;;;;;;13.81;43.13;98401.11;115018;1202;23172;-76
2021/04/11 08:18:13;;;;;;;7.35;2.20;;;;;;;13.95;43.57;98400.59;115117;1200;26031;-76
2021/04/11 08:21:09;;;;;;;5.35;2.05;;;;;;;14.13;43.20;98415.71;115004;1200;27172;-76
2021/04/11 08:24:15;;;;;;;4.40;2.20;;;;;;;14.30;42.36;98408.09;114837;1198;23200;-76
2021/04/11 08:27:12;;;;;;;3.60;1.90;;;;;;;14.49;41.49;98411.15;115049;1202;23185;-76
2021/04/11 08:29:58;;;;;;;4.20;1.95;;;;;;;14.67;41.46;98409.83;115157;1197;23093;-76
2021/04/11 08:32:27;;;;;;;5.00;1.90;;;;;;;14.84;42.06;98408.73;114866;1203;23259;-76
2021/04/11 08:34:54;;;;;;;5.80;2.10;;;;;;;14.97;41.38;98414.48;115048;1202;23195;-76
2021/04/11 08:37:59;;;;;;;4.00;1.60;;;;;;;15.14;40.46;98413.41;115092;1200;26601;-76
2021/04/11 08:41:02;;;;;;;3.87;2.20;;;;;;;15.30;38.86;98414.20;115088;1202;27356;-76
2021/04/11 08:43:32;;;;;;;3.05;1.55;;;;;;;15.49;39.08;98414.41;114686;1200;26227;-76
2021/04/11 08:46:12;;;;;;;4.65;2.00;;;;;;;15.63;38.10;98418.22;114777;1202;23231;-76
2021/04/11 08:49:01;;;;;;;3.05;1.55;;;;;;;15.75;37.34;98413.27;114871;1200;27299;-76
2021/04/11 08:51:43;;;;;;;4.10;1.73;;;;;;;15.84;37.24;98423.69;114832;1200;23109;-76
2021/04/11 08:54:33;;;;;;;3.85;1.70;;;;;;;15.94;36.72;98407.98;114784;1202;26047;-76
2021/04/11 08:57:12;;;;;;;4.23;2.00;;;;;;;16.09;36.00;98403.52;114818;1200;23463;-76
2021/04/11 09:00:03;;;;;;;4.45;1.75;;;;;;;16.22;35.33;98400.16;115051;1201;23166;-76
2021/04/11 09:02:49;;;;;;;3.50;1.63;;;;;;;16.34;35.74;98394.30;114785;1198;23172;-76
2021/04/11 09:05:37;;;;;;;6.25;2.05;;;;;;;16.51;35.98;98393.93;114779;1202;24749;-76
2021/04/11 09:08:14;;;;;;;3.30;1.90;;;;;;;16.65;34.25;98394.11;114792;1201;23183;-76
2021/04/11 09:11:06;;;;;;;4.98;2.05;;;;;;;16.76;34.42;98389.35;114842;1202;23210;-76
2021/04/11 09:13:55;;;;;;;3.07;1.70;;;;;;;16.82;34.42;98382.69;114818;1200;23109;-76
2021/04/11 09:16:41;;;;;;;3.97;1.80;;;;;;;16.86;34.56;98381.05;115092;1202;23090;-76
2021/04/11 09:19:29;;;;;;;4.85;1.80;;;;;;;16.97;35.30;98387.28;115068;1202;23090;-76
2021/04/11 09:22:02;;;;;;;3.88;1.80;;;;;;;17.06;34.60;98380.05;115076;1202;23090;-76
2021/04/11 09:24:41;;;;;;;4.78;1.90;;;;;;;17.13;33.29;98382.46;115067;1202;27230;-76
2021/04/11 09:27:19;;;;;;;4.40;2.20;;;;;;;17.25;33.67;98380.14;114937;1202;23108;-76
2021/04/11 09:29:58;;;;;;;4.25;1.90;;;;;;;17.33;34.74;98368.48;114826;1202;24856;-77
2021/04/11 09:32:47;;;;;;;3.70;1.80;;;;;;;17.40;33.89;98376.39;114794;1201;23105;-76
2021/04/11 09:35:41;;;;;;;3.20;2.13;;;;;;;17.39;33.58;98363.77;115100;1202;27431;-77
2021/04/11 09:38:37;;;;;;;4.17;1.87;;;;;;;17.34;33.18;98356.37;115131;1202;23115;-77
2021/04/11 09:41:59;;;;;;;5.17;1.97;;;;;;;17.29;32.85;98363.86;115012;1201;23089;-77
2021/04/11 09:44:50;;;;;;;2.60;1.50;;;;;;;17.20;32.39;98356.23;115449;1200;23105;-76
2021/04/11 09:47:38;;;;;;;3.85;1.90;;;;;;;17.23;34.24;98352.91;115225;1202;26628;-74
2021/04/11 09:50:28;;;;;;;2.40;1.80;;;;;;;17.27;33.70;98355.89;115115;1200;23105;-76
2021/04/11 09:53:01;;;;;;;2.45;1.68;;;;;;;17.33;34.27;98354.71;114894;1202;24730;-76
2021/04/11 09:55:43;;;;;;;3.97;1.90;;;;;;;17.48;34.26;98347.42;114861;1200;23122;-76
2021/04/11 09:58:31;;;;;;;2.70;2.00;;;;;;;17.55;33.39;98343.19;115095;1200;23129;-76
2021/04/11 10:01:19;;;;;;;2.63;1.80;;;;;;;17.62;32.64;98346.41;115134;1202;24580;-76
2021/04/11 10:04:09;;;;;;;4.77;1.93;;;;;;;17.69;32.77;98348.81;115114;1202;23152;-76
2021/04/11 10:07:08;;;;;;;3.20;1.60;;;;;;;17.80;32.79;98342.05;115261;1199;26143;-77
2021/04/11 10:09:43;;;;;;;4.40;1.80;;;;;;;17.98;32.61;98340.46;115312;1199;24854;-74
2021/04/11 10:12:38;;;;;;;3.55;1.50;;;;;;;18.12;32.59;98345.25;115171;1200;23107;-75
2021/04/11 10:15:16;;;;;;;1.98;1.23;;;;;;;18.27;32.14;98338.68;115275;1199;23111;-75
2021/04/11 10:17:53;;;;;;;4.15;1.60;;;;;;;18.40;32.16;98338.75;115515;1202;23160;-77
2021/04/11 10:20:39;;;;;;;4.10;1.50;;;;;;;18.59;32.07;98348.92;115305;1200;26998;-74
2021/04/11 10:23:42;;;;;;;2.95;1.35;;;;;;;18.79;30.61;98339.52;115053;1202;23255;-75
2021/04/11 10:26:37;;;;;;;2.65;1.20;;;;;;;19.03;29.94;98341.34;114363;1202;23102;-77
2021/04/11 10:29:23;;;;;;;2.95;1.63;;;;;;;19.32;30.67;98341.89;114709;1202;24720;-77
2021/04/11 10:32:01;;;;;;;5.23;1.60;;;;;;;19.64;30.78;98336.59;115104;1202;23234;-76
2021/04/11 10:34:47;;;;;;;5.60;1.30;;;;;;;19.88;29.66;98328.09;115056;1202;27045;-76
2021/04/11 10:37:33;;;;;;;2.45;1.35;;;;;;;20.06;29.40;98338.20;114795;1202;23143;-76
2021/04/11 10:40:00;;;;;;;4.98;1.43;;;;;;;20.17;28.90;98333.26;115066;1202;23093;-75
2021/04/11 10:42:33;;;;;;;3.13;1.20;;;;;;;20.34;27.95;98327.05;114843;1201;23122;-75
2021/04/11 10:45:15;;;;;;;1.38;1.03;;;;;;;20.43;28.26;98327.95;114797;1202;23122;-75
2021/04/11 10:48:05;;;;;;;1.83;1.00;;;;;;;20.54;28.25;98328.53;115048;1200;23109;-75
2021/04/11 10:51:04;;;;;;;3.90;1.30;;;;;;;20.65;27.66;98318.86;115058;1202;23090;-76
2021/04/11 10:53:47;;;;;;;6.83;1.80;;;;;;;20.72;27.47;98317.62;114875;1200;26163;-75
2021/04/11 10:56:39;;;;;;;1.10;0.80;;;;;;;20.69;26.03;98327.34;114750;1202;23135;-75
2021/04/11 10:59:44;;;;;;;3.30;1.07;;;;;;;20.64;25.77;98311.68;114789;1200;26214;-75
2021/04/11 11:02:49;;;;;;;2.87;1.20;;;;;;;20.69;25.14;98313.52;114905;1200;26188;-76
2021/04/11 11:05:53;;;;;;;3.23;1.20;;;;;;;20.86;25.36;98312.82;115010;1202;27204;-76
2021/04/11 11:08:46;;;;;;;2.40;1.00;;;;;;;21.00;25.05;98308.02;114878;1200;23085;-76
2021/04/11 11:11:34;;;;;;;2.53;1.00;;;;;;;21.09;25.41;98312.76;115058;1200;23093;-75
2021/04/11 11:14:39;;;;;;;4.60;1.37;;;;;;;21.04;25.31;98316.50;115112;1200;23109;-77
2021/04/11 11:17:17;;;;;;;2.73;1.18;;;;;;;20.92;24.47;98313.50;115153;1199;23250;-77
2021/04/11 11:19:50;;;;;;;6.78;1.18;;;;;;;20.82;24.84;98326.47;114777;1202;23105;-76
2021/04/11 11:22:55;;;;;;;3.63;0.80;;;;;;;20.73;25.14;98314.50;114767;1200;24756;-76
2021/04/11 11:25:50;;;;;;;4.35;0.95;;;;;;;20.69;25.33;98323.77;114761;1202;25364;-76
2021/04/11 11:28:27;;;;;;;5.63;1.15;;;;;;;20.65;25.36;98332.70;115123;1202;24690;-76
2021/04/11 11:31:45;;;;;;;1.67;0.80;;;;;;;20.48;25.39;98336.11;115034;1199;25965;-76
2021/04/11 11:34:38;;;;;;;6.03;1.10;;;;;;;20.35;26.02;98333.42;114843;1200;23109;-76
2021/04/11 11:37:47;;;;;;;1.90;0.90;;;;;;;20.48;25.99;98335.30;115223;1200;28205;-76
2021/04/11 11:40:39;;;;;;;5.68;1.25;;;;;;;20.68;25.82;98342.30;115042;1199;23232;-76
2021/04/11 11:43:35;;;;;;;1.93;0.80;;;;;;;20.78;25.79;98325.45;115100;1199;23363;-76
2021/04/11 11:46:29;;;;;;;3.60;0.78;;;;;;;20.98;25.82;98309.45;115069;1199;23202;-76
2021/04/11 11:49:14;;;;;;;3.30;0.93;;;;;;;21.01;26.03;98317.94;114923;1200;24882;-76
2021/04/11 11:51:50;;;;;;;4.33;1.00;;;;;;;20.95;26.58;98321.98;115058;1199;23131;-76
2021/04/11 11:54:36;;;;;;;4.77;0.93;;;;;;;20.78;26.11;98313.57;115001;1199;24581;-77
2021/04/11 11:57:27;;;;;;;2.13;0.68;;;;;;;20.60;26.73;98321.72;115201;1199;23093;-76
2021/04/11 12:00:18;;;;;;;2.48;0.75;;;;;;;20.41;27.38;98312.78;115040;1201;23105;-77
2021/04/11 12:03:04;;;;;;;2.30;0.80;;;;;;;20.26;27.39;98312.02;114998;1200;27345;-77
2021/04/11 12:05:53;;;;;;;1.77;0.80;;;;;;;20.09;27.31;98322.92;114725;1202;24743;-77
2021/04/11 12:08:22;;;;;;;7.23;0.63;;;;;;;19.95;27.75;98322.14;115045;1200;27976;-76
2021/04/11 12:11:23;;;;;;;2.13;0.63;;;;;;;20.01;28.48;98321.73;115040;1202;26184;-76
2021/04/11 12:13:59;;;;;;;2.95;1.43;;;;;;;20.19;29.15;98330.19;115015;1201;23232;-76
2021/04/11 12:16:41;;;;;;;2.83;0.95;;;;;;;20.42;28.40;98317.20;114767;1200;23086;-76
2021/04/11 12:19:29;;;;;;;4.75;0.60;;;;;;;20.32;27.77;98328.50;114806;1202;23108;-76
2021/04/11 12:22:05;;;;;;;3.05;0.55;;;;;;;20.01;28.16;98307.91;115170;1202;23166;-77
2021/04/11 12:24:47;;;;;;;1.93;0.48;;;;;;;19.79;28.77;98311.41;115226;1200;23098;-76
2021/04/11 12:27:24;;;;;;;1.63;0.40;;;;;;;19.66;29.56;98312.23;114978;1200;23173;-76
2021/04/11 12:29:51;;;;;;;2.05;0.50;;;;;;;19.57;29.78;98322.38;115189;1200;23116;-76
2021/04/11 12:32:41;;;;;;;2.60;0.60;;;;;;;19.44;29.91;98315.70;115344;1202;23102;-76
2021/04/11 12:35:33;;;;;;;2.15;0.50;;;;;;;19.28;30.27;98323.47;115037;1199;24728;-76